Main page
METAR-TAF:

METAR-TAF

Airports :

Kulob Airport

Kulob, Tajikistan

latitude: 37-59-18N, longitude: 069-48-18E, elevation: 699 m

Current weather observation

The report was made 38 minutes ago, at 06:30 UTC
Wind 8 kt from the South/Southwest, varying between South and West/Southwest
Temperature 36°C
Humidity 17%
Pressure 1005 hPa
Visibility 10 km or more

METAR: UTDK 110630Z 21004MPS 180V240 9999 NSC 36/07 Q1005 R01/09//70 RMK QFE697/0929

Time: 12:08 (07:08 UTC)

Forecast

The report was made 1 hour and 8 minutes ago, at 06:00 UTC
Forecast valid from 11 at 07 UTC to 11 at 16 UTC
Wind 4 kt from variable directions
Visibility: 6000 m
Few clouds at a height of 6000 ft, Cumulonimbus.
Broken clouds at a height of 10000 ft
Temporary
from 11 at 07 UTC to 11 at 16 UTC
Wind 14 kt from the South/Southwest
thunderstorm

TAF: UTDK 110600Z 1107/1116 VRB02MPS 6000 FEW060CB BKN100 TEMPO 1107/1116 21007MPS TS

Weather observations and forecasts of more than 4000 airports (METAR and TAF reports).

The available stations are represented by yellow and red dots on the map.

Hover mouse over dot to see the name of the station.

Then click to see weather observations and forecasts.

To change the map : click on the green buttons with a black cross to zoom in, on the green button with a dash to zoom out, or on the green arrows for adjacent maps.


METAR-TAF: